Time;durP1;ratioP1;P1;durP2;ratioP2;P2;SDS_P1;SDS_P2;PMS_P1;PMS_P2;Temp;Humidity;BMP_temperature;BMP_pressure;BME280_temperature;BME280_humidity;BME280_pressure;Samples;Min_cycle;Max_cycle;Signal;HPM_P1;HPM_P2
2024/04/09 00:02:04;343315.00;1.14;592.37;62994.00;0.21;109.65;;;;;23.90;1.00;;;;;;2170128;66;975;-84
2024/04/09 00:04:32;544601.00;1.82;938.65;96684.00;0.32;167.85;;;;;24.00;1.00;;;;;;2169986;66;1045;-85
2024/04/09 00:06:58;310956.00;1.04;536.75;22625.00;0.08;39.82;;;;;24.00;1.00;;;;;;2169774;66;1987;-84
2024/04/09 00:09:30;172596.00;0.58;298.74;20333.00;0.07;35.85;;;;;23.70;1.00;;;;;;2170056;66;1037;-84
2024/04/09 00:11:58;534995.00;1.78;922.10;130037.00;0.43;225.39;;;;;23.50;1.00;;;;;;2169789;66;1033;-85
2024/04/09 00:14:27;384908.00;1.28;663.86;131476.00;0.44;227.87;;;;;23.50;1.00;;;;;;2169638;66;1379;-84
2024/04/09 00:16:53;119709.00;0.40;207.58;0.00;0.00;0.62;;;;;23.60;1.00;;;;;;2169917;66;1878;-85
2024/04/09 00:19:23;189871.00;0.63;328.49;28701.00;0.10;50.33;;;;;23.50;1.00;;;;;;2169872;66;1044;-85
2024/04/09 00:21:52;290546.00;0.97;501.67;30312.00;0.10;53.12;;;;;23.50;1.00;;;;;;2169844;66;1227;-85
2024/04/09 00:24:21;379579.00;1.27;654.70;73011.00;0.24;126.96;;;;;23.40;1.00;;;;;;2169811;66;2278;-84
2024/04/09 00:26:50;308781.00;1.03;533.01;0.00;0.00;0.62;;;;;23.20;1.00;;;;;;2169830;66;1319;-84
2024/04/09 00:29:19;135325.00;0.45;234.51;0.00;0.00;0.62;;;;;23.20;1.00;;;;;;2169649;66;1298;-84
2024/04/09 00:31:45;142649.00;0.48;247.14;13186.00;0.04;23.47;;;;;23.30;1.00;;;;;;2169569;66;1076;-84
2024/04/09 00:34:13;236114.00;0.79;408.07;18189.00;0.06;32.13;;;;;23.40;1.00;;;;;;2169879;66;1009;-84
2024/04/09 00:36:40;185670.00;0.62;321.25;0.00;0.00;0.62;;;;;23.40;1.00;;;;;;2169770;66;1900;-84
2024/04/09 00:39:19;72119.00;0.24;125.42;0.00;0.00;0.62;;;;;23.20;1.00;;;;;;2169663;66;1262;-85
2024/04/09 00:41:47;425641.00;1.42;733.89;42685.00;0.14;74.53;;;;;23.20;1.00;;;;;;2169384;66;2224;-84
2024/04/09 00:44:18;256494.00;0.85;443.12;0.00;0.00;0.62;;;;;23.20;1.00;;;;;;2169796;66;2054;-84
2024/04/09 00:46:46;450375.00;1.50;776.43;50685.00;0.17;88.37;;;;;23.20;1.00;;;;;;2169791;66;1358;-84
2024/04/09 00:49:16;197487.00;0.66;341.60;34262.00;0.11;59.96;;;;;23.30;1.00;;;;;;2169749;66;2195;-84
2024/04/09 00:51:44;376716.00;1.26;649.78;0.00;0.00;0.62;;;;;23.10;1.00;;;;;;2169392;66;982;-84
2024/04/09 00:54:17;246443.00;0.82;425.83;51187.00;0.17;89.24;;;;;22.70;1.00;;;;;;2170028;66;1112;-84
2024/04/09 00:56:44;203022.00;0.68;351.13;0.00;0.00;0.62;;;;;22.80;1.00;;;;;;2169793;66;1862;-84
2024/04/09 00:59:21;163214.00;0.54;282.58;0.00;0.00;0.62;;;;;23.00;1.00;;;;;;2169658;66;1123;-84
2024/04/09 01:01:47;259307.00;0.86;447.96;44411.00;0.15;77.52;;;;;23.00;1.00;;;;;;2169710;66;1087;-85
2024/04/09 01:04:16;8679.00;0.03;15.66;0.00;0.00;0.62;;;;;22.80;1.00;;;;;;2169641;66;1127;-83
2024/04/09 01:06:43;205829.00;0.69;355.96;22851.00;0.08;40.21;;;;;22.80;1.00;;;;;;2169482;66;1264;-85
2024/04/09 01:09:11;159005.00;0.53;275.32;0.00;0.00;0.62;;;;;23.00;1.00;;;;;;2169242;66;1081;-84
2024/04/09 01:11:37;385311.00;1.28;664.55;67101.00;0.22;116.75;;;;;23.00;1.00;;;;;;2169642;66;1005;-85
2024/04/09 01:14:05;520903.00;1.74;897.82;39491.00;0.13;69.01;;;;;23.00;1.00;;;;;;2169821;66;2429;-85
2024/04/09 01:16:34;565721.00;1.89;975.07;32419.00;0.11;56.77;;;;;22.90;1.00;;;;;;2169147;66;1866;-84
2024/04/09 01:19:02;156992.00;0.52;271.86;0.00;0.00;0.62;;;;;23.00;1.00;;;;;;2169588;66;1076;-84
2024/04/09 01:21:29;561217.00;1.87;967.30;52851.00;0.18;92.12;;;;;23.00;1.00;;;;;;2169517;66;1182;-84
2024/04/09 01:24:01;404898.00;1.35;698.23;37770.00;0.13;66.03;;;;;22.80;1.00;;;;;;2169546;66;1017;-83
2024/04/09 01:26:27;394252.00;1.31;679.92;35070.00;0.12;61.36;;;;;22.90;1.00;;;;;;2169735;66;1319;-85
2024/04/09 01:28:55;77337.00;0.26;134.44;0.00;0.00;0.62;;;;;22.70;1.00;;;;;;2169945;66;1063;-84
2024/04/09 01:31:23;19473.00;0.06;34.36;0.00;0.00;0.62;;;;;22.40;1.00;;;;;;2169712;66;1155;-83
2024/04/09 01:33:51;130274.00;0.43;225.80;0.00;0.00;0.62;;;;;22.40;1.00;;;;;;2169823;66;1019;-84
2024/04/09 01:36:18;49674.00;0.17;86.62;0.00;0.00;0.62;;;;;22.40;1.00;;;;;;2169535;66;1907;-84
2024/04/09 01:38:49;459340.00;1.53;791.85;48663.00;0.16;84.87;;;;;22.50;1.00;;;;;;2169931;66;983;-85
2024/04/09 01:41:18;432443.00;1.44;745.59;18846.00;0.06;33.27;;;;;22.60;1.00;;;;;;2169656;66;2190;-84
2024/04/09 01:43:46;247903.00;0.83;428.34;0.00;0.00;0.62;;;;;21.80;1.00;;;;;;2170019;66;1098;-83
2024/04/09 01:46:12;218212.00;0.73;377.27;4041.00;0.01;7.62;;;;;21.60;1.00;;;;;;2169689;66;1082;-84
2024/04/09 01:48:42;824353.00;2.75;1423.63;156329.00;0.52;270.71;;;;;21.60;1.00;;;;;;2169757;66;1417;-83
2024/04/09 01:51:09;154904.00;0.52;268.26;0.00;0.00;0.62;;;;;21.70;1.00;;;;;;2169466;66;1068;-84
2024/04/09 01:53:37;357097.00;1.19;616.06;39043.00;0.13;68.23;;;;;21.80;1.00;;;;;;2169521;66;1203;-84
2024/04/09 01:56:04;412478.00;1.37;711.26;8481.00;0.03;15.32;;;;;21.90;1.00;;;;;;2169727;66;1903;-83
2024/04/09 01:58:35;259205.00;0.86;447.78;49983.00;0.17;87.16;;;;;21.90;1.00;;;;;;2170035;66;1178;-84
2024/04/09 02:01:04;315179.00;1.05;544.01;17025.00;0.06;30.12;;;;;21.90;1.00;;;;;;2169829;66;1121;-83
2024/04/09 02:03:34;900817.00;3.00;1557.55;134428.00;0.45;232.96;;;;;21.70;1.00;;;;;;2169672;66;1039;-84
2024/04/09 02:06:02;326149.00;1.09;562.87;41474.00;0.14;72.44;;;;;21.70;1.00;;;;;;2169595;66;1008;-83
2024/04/09 02:08:30;371812.00;1.24;641.35;84115.00;0.28;146.14;;;;;21.70;1.00;;;;;;2169677;66;1233;-83
2024/04/09 02:10:56;498303.00;1.66;858.90;83266.00;0.28;144.68;;;;;21.80;1.00;;;;;;2169419;66;1113;-85
2024/04/09 02:13:25;384465.00;1.28;663.10;30722.00;0.10;53.83;;;;;21.80;1.00;;;;;;2169508;66;1083;-85
2024/04/09 02:15:54;250597.00;0.84;432.98;0.00;0.00;0.62;;;;;21.80;1.00;;;;;;2169090;66;1926;-85
2024/04/09 02:18:22;217191.00;0.72;375.51;0.00;0.00;0.62;;;;;21.90;1.00;;;;;;2168774;66;1230;-85
2024/04/09 02:20:51;715316.00;2.38;1233.81;148354.00;0.49;256.97;;;;;21.60;1.00;;;;;;2169112;66;1042;-85
2024/04/09 02:23:17;188195.00;0.63;325.60;22563.00;0.08;39.71;;;;;21.40;1.00;;;;;;2169243;66;1029;-84
2024/04/09 02:25:45;218519.00;0.73;377.80;0.00;0.00;0.62;;;;;21.00;1.00;;;;;;2169313;66;1052;-83
2024/04/09 02:28:12;533104.00;1.78;918.84;0.00;0.00;0.62;;;;;20.50;1.00;;;;;;2169329;66;1240;-83
2024/04/09 02:30:40;736221.00;2.45;1270.11;145986.00;0.49;252.89;;;;;20.40;1.00;;;;;;2169051;66;1074;-82
2024/04/09 02:33:09;812679.00;2.71;1403.24;24187.00;0.08;42.52;;;;;20.20;1.00;;;;;;2169181;66;1148;-82
2024/04/09 02:35:39;257637.00;0.86;445.08;0.00;0.00;0.62;;;;;20.00;1.00;;;;;;2169096;66;1860;-83
2024/04/09 02:38:05;196082.00;0.65;339.18;0.00;0.00;0.62;;;;;19.90;1.00;;;;;;2169193;66;1270;-83
2024/04/09 02:40:34;283894.00;0.95;490.23;0.00;0.00;0.62;;;;;20.20;1.00;;;;;;2169874;66;1115;-83
2024/04/09 02:43:03;591081.00;1.97;1018.82;51148.00;0.17;89.17;;;;;20.00;1.00;;;;;;2169590;66;1086;-82
2024/04/09 02:45:31;424062.00;1.41;731.17;16507.00;0.06;29.22;;;;;19.60;1.00;;;;;;2169672;66;974;-83
2024/04/09 02:47:57;199194.00;0.66;344.54;0.00;0.00;0.62;;;;;19.30;1.00;;;;;;2169330;66;1217;-82
2024/04/09 02:50:29;116858912.00;389.53;64641092.00;122129.00;0.41;211.75;;;;;19.30;1.00;;;;;;2169365;66;2355;-81
2024/04/09 02:52:54;565294.00;1.88;974.33;193818.00;0.65;335.28;;;;;19.10;1.00;;;;;;2169411;66;1239;-83
2024/04/09 02:55:23;727286.00;2.42;1254.59;65298.00;0.22;113.63;;;;;19.10;1.00;;;;;;2168820;66;1872;-82
2024/04/09 02:57:49;403660.00;1.35;696.10;32230.00;0.11;56.44;;;;;19.20;1.00;;;;;;2168702;66;1255;-83
2024/04/09 03:00:19;442925.00;1.48;763.61;72303.00;0.24;125.74;;;;;19.20;1.00;;;;;;2168303;66;1071;-82
2024/04/09 03:02:50;779853.00;2.60;1346.01;0.00;0.00;0.62;;;;;19.20;1.00;;;;;;2169032;66;1233;-83
2024/04/09 03:05:18;1468820.00;4.90;2584.59;190028.00;0.63;328.76;;;;;19.20;1.00;;;;;;2169276;66;1204;-83
2024/04/09 03:07:47;322264.00;1.07;556.19;13326.00;0.04;23.71;;;;;19.00;1.00;;;;;;2169069;66;1225;-83
2024/04/09 03:10:16;701810.00;2.34;1210.38;75791.00;0.25;131.77;;;;;18.90;1.00;;;;;;2169260;66;1114;-83
2024/04/09 03:12:42;340727.00;1.14;587.92;55195.00;0.18;96.17;;;;;19.00;1.00;;;;;;2169313;66;1109;-84
2024/04/09 03:15:11;518384.00;1.73;893.48;63067.00;0.21;109.78;;;;;19.20;1.00;;;;;;2169499;66;1058;-83
2024/04/09 03:17:37;498662.00;1.66;859.52;69636.00;0.23;121.13;;;;;19.60;1.00;;;;;;2169320;66;2212;-83
2024/04/09 03:20:06;336482.00;1.12;580.63;1417.00;0.00;3.08;;;;;19.90;1.00;;;;;;2170041;66;1030;-83
2024/04/09 03:22:32;223333.00;0.74;386.08;11442.00;0.04;20.45;;;;;19.90;1.00;;;;;;2169402;66;2311;-84
2024/04/09 03:25:03;499026.00;1.66;860.15;89370.00;0.30;155.22;;;;;19.90;1.00;;;;;;2169019;66;1072;-83
2024/04/09 03:27:29;619733.00;2.07;1068.30;31541.00;0.11;55.25;;;;;20.00;1.00;;;;;;2168985;66;1332;-83
2024/04/09 03:29:57;573251.00;1.91;988.05;32320.00;0.11;56.60;;;;;19.80;1.00;;;;;;2169150;66;1210;-84
2024/04/09 03:32:23;481377.00;1.60;829.77;59522.00;0.20;103.65;;;;;19.90;1.00;;;;;;2168945;66;999;-83
2024/04/09 03:34:52;448596.00;1.50;773.37;44806.00;0.15;78.20;;;;;19.80;1.00;;;;;;2168553;66;1088;-83
2024/04/09 03:37:18;552661.00;1.84;952.55;59336.00;0.20;103.33;;;;;19.50;1.00;;;;;;2168784;66;1904;-83
2024/04/09 03:39:46;477643.00;1.59;823.34;44046.00;0.15;76.89;;;;;19.00;1.00;;;;;;2168768;66;1205;-83
2024/04/09 03:42:17;627866.00;2.09;1082.36;133422.00;0.44;231.23;;;;;18.90;1.00;;;;;;2169091;66;1092;-83
2024/04/09 03:44:43;214157.00;0.71;370.29;0.00;0.00;0.62;;;;;18.80;1.00;;;;;;2168797;66;1072;-83
2024/04/09 03:47:12;402733.00;1.34;694.50;0.00;0.00;0.62;;;;;18.90;1.00;;;;;;2168948;66;1230;-84
2024/04/09 03:49:38;492934.00;1.64;849.66;0.00;0.00;0.62;;;;;18.80;1.00;;;;;;2168716;66;1056;-83
2024/04/09 03:52:07;184739.00;0.62;319.65;0.00;0.00;0.62;;;;;18.60;1.00;;;;;;2168766;66;1171;-83
2024/04/09 03:54:33;371488.00;1.24;640.79;0.00;0.00;0.62;;;;;18.60;1.00;;;;;;2168626;66;1090;-83
2024/04/09 03:57:03;390202.00;1.30;672.96;0.00;0.00;0.62;;;;;18.50;1.00;;;;;;2168692;66;1908;-83
2024/04/09 03:59:31;636862.00;2.12;1097.91;43623.00;0.15;76.16;;;;;18.40;1.00;;;;;;2169017;66;1087;-84
2024/04/09 04:02:00;342447.00;1.14;590.88;0.00;0.00;0.62;;;;;18.40;1.00;;;;;;2169039;66;1128;-83
2024/04/09 04:04:26;386495.00;1.29;666.59;0.00;0.00;0.62;;;;;18.50;1.00;;;;;;2168847;66;1031;-83
2024/04/09 04:06:54;137979.00;0.46;239.09;0.00;0.00;0.62;;;;;18.40;1.00;;;;;;2168954;66;1235;-83
2024/04/09 04:09:23;416272.00;1.39;717.78;16178.00;0.05;28.65;;;;;18.50;1.00;;;;;;2168599;66;1025;-83
2024/04/09 04:11:52;1070722.00;3.57;1858.14;236187.00;0.79;408.19;;;;;18.60;1.00;;;;;;2168618;66;1073;-83
2024/04/09 04:14:18;622987.00;2.08;1073.93;82527.00;0.28;143.40;;;;;18.80;1.00;;;;;;2168435;66;1018;-83
2024/04/09 04:16:49;417144.00;1.39;719.28;5875.00;0.02;10.80;;;;;19.10;1.00;;;;;;2168639;66;1860;-83
2024/04/09 04:19:16;624421.00;2.08;1076.41;148726.00;0.50;257.61;;;;;19.00;1.00;;;;;;2168591;66;1094;-83
2024/04/09 04:21:45;548282.00;1.83;945.00;214257.00;0.71;370.46;;;;;19.10;1.00;;;;;;2168235;66;1702;-83
2024/04/09 04:24:10;814423.00;2.71;1406.29;57121.00;0.19;99.50;;;;;19.20;1.00;;;;;;2168772;66;1041;-83
2024/04/09 04:26:39;389540.00;1.30;671.82;0.00;0.00;0.62;;;;;19.50;1.00;;;;;;2168215;66;1258;-84
2024/04/09 04:29:05;769717.00;2.57;1328.36;117611.00;0.39;203.96;;;;;19.70;1.00;;;;;;2168843;66;1070;-83
2024/04/09 04:31:33;116167208.00;387.22;63499032.00;49295.00;0.16;85.97;;;;;19.50;1.00;;;;;;2168681;66;1166;-83
2024/04/09 04:34:02;469933.00;1.57;810.07;64875.00;0.22;112.90;;;;;19.50;1.00;;;;;;2168822;66;1097;-83
2024/04/09 04:36:31;189025.00;0.63;327.03;0.00;0.00;0.62;;;;;19.50;1.00;;;;;;2168645;66;1873;-84
2024/04/09 04:38:57;645731.00;2.15;1113.25;87991.00;0.29;152.84;;;;;19.50;1.00;;;;;;2168928;66;1039;-83
2024/04/09 04:41:25;974823.00;3.25;1687.93;210948.00;0.70;364.77;;;;;19.60;1.00;;;;;;2169330;66;1103;-83
2024/04/09 04:43:55;524669.00;1.75;904.31;11305.00;0.04;20.21;;;;;19.70;1.00;;;;;;2169288;66;1064;-83
2024/04/09 04:46:24;120178960.00;400.60;70313936.00;0.00;0.00;0.62;;;;;19.70;1.00;;;;;;2169209;66;1319;-83
2024/04/09 04:48:50;363461.00;1.21;627.00;63556.00;0.21;110.62;;;;;19.90;1.00;;;;;;2169262;66;1043;-83
2024/04/09 04:51:21;380094.00;1.27;655.59;95942.00;0.32;166.57;;;;;19.90;1.00;;;;;;2169207;66;1203;-83
2024/04/09 04:53:47;302424.00;1.01;522.09;46508.00;0.16;81.15;;;;;20.20;1.00;;;;;;2169588;66;1104;-84
2024/04/09 04:56:15;116232696.00;387.44;63606568.00;0.00;0.00;0.62;;;;;20.30;1.00;;;;;;2169536;66;1904;-85
2024/04/09 04:58:41;474701.00;1.58;818.28;8295.00;0.03;15.00;;;;;20.30;1.00;;;;;;2169523;66;1181;-84
2024/04/09 05:01:10;741857.00;2.47;1279.90;57359.00;0.19;99.91;;;;;20.30;1.00;;;;;;2169402;66;1058;-84
2024/04/09 05:03:36;191359.00;0.64;331.05;0.00;0.00;0.62;;;;;20.30;1.00;;;;;;2168937;66;1050;-83
2024/04/09 05:06:08;779567.00;2.60;1345.51;162752.00;0.54;281.78;;;;;20.40;1.00;;;;;;2168874;66;1113;-84
2024/04/09 05:08:37;628086.00;2.09;1082.74;21594.00;0.07;38.03;;;;;20.40;1.00;;;;;;2168497;66;1225;-83
2024/04/09 05:11:11;893529.00;2.98;1544.76;126025.00;0.42;218.47;;;;;20.50;1.00;;;;;;2168210;66;1234;-84
2024/04/09 05:13:37;380152.00;1.27;655.69;20567.00;0.07;36.25;;;;;20.70;1.00;;;;;;2168983;66;1030;-84
2024/04/09 05:16:06;500991.00;1.67;863.53;77632.00;0.26;134.95;;;;;20.70;1.00;;;;;;2168749;66;1869;-85
2024/04/09 05:18:32;401027.00;1.34;691.57;23015.00;0.08;40.49;;;;;20.60;1.00;;;;;;2168881;66;1256;-83
2024/04/09 05:21:00;437787.00;1.46;754.78;45067.00;0.15;78.65;;;;;20.70;1.00;;;;;;2168851;66;1222;-83
2024/04/09 05:23:27;347893.00;1.16;600.24;70787.00;0.24;123.12;;;;;20.70;1.00;;;;;;2168937;66;1046;-84
2024/04/09 05:25:59;713289.00;2.38;1230.29;170891.00;0.57;295.80;;;;;20.70;1.00;;;;;;2169012;66;1053;-83
2024/04/09 05:28:24;879393.00;2.93;1519.96;203392.00;0.68;351.76;;;;;20.70;1.00;;;;;;2168664;66;1314;-83
2024/04/09 05:30:53;702453.00;2.34;1211.49;81353.00;0.27;141.37;;;;;20.80;1.00;;;;;;2168630;66;1085;-84
2024/04/09 05:33:19;619873.00;2.07;1068.55;114806.00;0.38;199.12;;;;;20.70;1.00;;;;;;2168978;66;1180;-84
2024/04/09 05:35:47;891262.00;2.97;1540.78;111369.00;0.37;193.19;;;;;20.80;1.00;;;;;;2168896;66;1913;-84
2024/04/09 05:38:13;328638.00;1.10;567.15;73573.00;0.25;127.93;;;;;20.90;1.00;;;;;;2168908;66;1160;-84
2024/04/09 05:40:41;346470.00;1.15;597.79;40527.00;0.14;70.80;;;;;20.80;1.00;;;;;;2168735;66;985;-84
2024/04/09 05:43:10;606391.00;2.02;1045.26;0.00;0.00;0.62;;;;;21.00;1.00;;;;;;2169113;66;1124;-84
2024/04/09 05:45:38;864779.00;2.88;1494.34;76208.00;0.25;132.49;;;;;20.70;1.00;;;;;;2168718;66;1111;-83
2024/04/09 05:48:05;1020480.00;3.40;1768.78;103143.00;0.34;179.00;;;;;20.60;1.00;;;;;;2168818;66;1261;-83
2024/04/09 05:50:33;271845.00;0.91;469.52;0.00;0.00;0.62;;;;;20.60;1.00;;;;;;2168871;66;1087;-83
2024/04/09 05:52:59;567462.00;1.89;978.07;81991.00;0.27;142.48;;;;;20.90;1.00;;;;;;2168970;66;1154;-84
2024/04/09 05:55:27;755464.00;2.52;1303.56;93036.00;0.31;161.55;;;;;21.20;1.00;;;;;;2169966;66;1011;-83
2024/04/09 05:57:53;433023.00;1.44;746.58;18656.00;0.06;32.94;;;;;21.30;1.00;;;;;;2169542;66;1872;-83
2024/04/09 06:00:24;740378.00;2.47;1277.33;195982.00;0.65;339.01;;;;;21.50;1.00;;;;;;2169201;66;1067;-84
2024/04/09 06:02:50;791057.00;2.64;1365.53;99499.00;0.33;172.71;;;;;21.80;1.00;;;;;;2169606;66;1078;-83
2024/04/09 06:05:19;433435.00;1.44;747.29;88525.00;0.30;153.76;;;;;22.00;1.00;;;;;;2169615;66;1309;-83
2024/04/09 06:07:46;532655.00;1.78;918.07;0.00;0.00;0.62;;;;;22.10;1.00;;;;;;2169067;66;1213;-83
2024/04/09 06:10:15;552884.00;1.84;952.93;39437.00;0.13;68.91;;;;;22.70;1.00;;;;;;2169101;66;973;-84
2024/04/09 06:12:41;355927.00;1.19;614.05;6261.00;0.02;11.47;;;;;23.10;1.00;;;;;;2169115;66;1100;-83
2024/04/09 06:15:09;289473.00;0.96;499.82;93311.00;0.31;162.02;;;;;23.20;1.00;;;;;;2169265;66;1018;-84
2024/04/09 06:17:38;207565.00;0.69;358.94;39943.00;0.13;69.79;;;;;23.40;1.00;;;;;;2169053;66;1868;-84
2024/04/09 06:20:07;411785.00;1.37;710.07;76289.00;0.25;132.63;;;;;23.70;1.00;;;;;;2169225;66;1022;-84
2024/04/09 06:22:33;443446.00;1.48;764.51;61060.00;0.20;106.31;;;;;23.80;1.00;;;;;;2169406;66;1103;-84
2024/04/09 06:25:03;554675.00;1.85;956.02;50718.00;0.17;88.43;;;;;24.00;1.00;;;;;;2169075;66;1007;-84
2024/04/09 06:27:28;459613.00;1.53;792.32;0.00;0.00;0.62;;;;;23.90;1.00;;;;;;2168945;66;1333;-83
2024/04/09 06:29:57;245283.00;0.82;423.84;0.00;0.00;0.62;;;;;23.90;1.00;;;;;;2168846;66;2948;-84
2024/04/09 06:32:24;158750.00;0.53;274.89;0.00;0.00;0.62;;;;;23.90;1.00;;;;;;2169113;66;988;-83
2024/04/09 06:34:55;331028.00;1.10;571.25;38644.00;0.13;67.54;;;;;23.80;1.00;;;;;;2168701;66;1227;-83
2024/04/09 06:37:20;333415.00;1.11;575.36;78645.00;0.26;136.70;;;;;23.70;1.00;;;;;;2168923;66;1929;-83
2024/04/09 06:39:49;425888.00;1.42;734.31;75440.00;0.25;131.16;;;;;23.80;1.00;;;;;;2168871;66;1138;-84
2024/04/09 06:42:15;648201.00;2.16;1117.52;138281.00;0.46;239.61;;;;;24.10;1.00;;;;;;2168823;66;2312;-83
2024/04/09 06:44:43;346685.00;1.16;598.16;9021.00;0.03;16.25;;;;;24.50;1.00;;;;;;2168532;66;1213;-84
2024/04/09 06:47:09;313914.00;1.05;541.84;0.00;0.00;0.62;;;;;24.70;1.00;;;;;;2168792;66;1284;-84
2024/04/09 06:49:38;491115.00;1.64;846.53;15298.00;0.05;27.13;;;;;24.60;1.00;;;;;;2168854;66;1206;-84
2024/04/09 06:52:06;448122.00;1.49;772.55;0.00;0.00;0.62;;;;;24.70;1.00;;;;;;2168348;66;1309;-83
2024/04/09 06:54:35;846632.00;2.82;1462.57;201161.00;0.67;347.92;;;;;24.90;1.00;;;;;;2168371;66;1726;-84
2024/04/09 06:57:00;656965.00;2.19;1132.69;129133.00;0.43;223.83;;;;;25.00;1.00;;;;;;2168632;66;1867;-82
2024/04/09 06:59:29;331162.00;1.10;571.48;59646.00;0.20;103.86;;;;;25.00;1.00;;;;;;2169038;66;1008;-84
2024/04/09 07:01:55;266770.00;0.89;460.79;59609.00;0.20;103.80;;;;;25.50;1.00;;;;;;2168987;66;1194;-83
2024/04/09 07:04:24;474472.00;1.58;817.88;15614.00;0.05;27.67;;;;;25.40;1.00;;;;;;2168884;66;1088;-84
2024/04/09 07:06:50;126108.00;0.42;218.62;0.00;0.00;0.62;;;;;25.40;1.00;;;;;;2169795;66;1224;-86
2024/04/09 07:09:22;457000.00;1.52;787.82;93575.00;0.31;162.48;;;;;25.30;1.00;;;;;;2170233;66;1006;-86
2024/04/09 07:11:48;335923.00;1.12;579.67;50756.00;0.17;88.49;;;;;25.10;1.00;;;;;;2170225;66;1332;-86
2024/04/09 07:14:17;319018.00;1.06;550.61;37383.00;0.12;65.36;;;;;24.90;1.00;;;;;;2170245;66;982;-85
2024/04/09 07:16:43;611416.00;2.04;1053.94;118319.00;0.39;205.18;;;;;25.00;1.00;;;;;;2170131;66;2514;-84
2024/04/09 07:19:12;245630.00;0.82;424.43;0.00;0.00;0.62;;;;;25.30;1.00;;;;;;2170109;66;966;-85
2024/04/09 07:21:39;170092.00;0.57;294.43;0.00;0.00;0.62;;;;;25.20;1.00;;;;;;2170208;66;1100;-85
2024/04/09 07:24:08;130540.00;0.44;226.26;0.00;0.00;0.62;;;;;25.60;1.00;;;;;;2169999;66;2021;-85
2024/04/09 07:26:37;330409.00;1.10;570.19;77976.00;0.26;135.54;;;;;25.60;1.00;;;;;;2169848;66;1282;-83
2024/04/09 07:29:05;134088.00;0.45;232.38;0.00;0.00;0.62;;;;;25.60;1.00;;;;;;2169782;66;1179;-83
2024/04/09 07:31:31;279236.00;0.93;482.22;54306.00;0.18;94.63;;;;;25.40;1.00;;;;;;2169420;66;1027;-83
2024/04/09 07:34:00;0.00;0.00;0.62;0.00;0.00;0.62;;;;;25.10;1.00;;;;;;2169689;66;1019;-83
2024/04/09 07:36:26;254444.00;0.85;439.59;0.00;0.00;0.62;;;;;24.80;1.00;;;;;;2169992;66;1858;-85
2024/04/09 07:38:55;0.00;0.00;0.62;0.00;0.00;0.62;;;;;24.60;1.00;;;;;;2169761;66;1144;-86
2024/04/09 07:41:22;171954.00;0.57;297.63;0.00;0.00;0.62;;;;;24.50;1.00;;;;;;2169898;66;1092;-85
2024/04/09 07:43:55;602120.00;2.01;1037.88;94562.00;0.32;164.18;;;;;24.50;1.00;;;;;;2169899;66;1289;-81
2024/04/09 07:46:21;18359.00;0.06;32.43;0.00;0.00;0.62;;;;;24.70;1.00;;;;;;2169862;66;1607;-86
2024/04/09 07:48:50;4913.00;0.02;9.13;0.00;0.00;0.62;;;;;24.30;1.00;;;;;;2169893;66;2028;-85
2024/04/09 07:51:16;249777.00;0.83;431.57;0.00;0.00;0.62;;;;;24.10;1.00;;;;;;2170039;66;1077;-84
2024/04/09 07:53:44;64250.00;0.21;111.82;0.00;0.00;0.62;;;;;24.10;1.00;;;;;;2170101;66;1002;-88
2024/04/09 07:56:12;33869.00;0.11;59.28;0.00;0.00;0.62;;;;;23.90;1.00;;;;;;2169959;66;1873;-84
2024/04/09 07:58:41;340294.00;1.13;587.18;0.00;0.00;0.62;;;;;23.60;1.00;;;;;;2169950;66;1605;-87
2024/04/09 08:01:09;195749.00;0.65;338.61;0.00;0.00;0.62;;;;;23.00;1.00;;;;;;2170025;66;1238;-84
2024/04/09 08:03:38;126335.00;0.42;219.01;3838.00;0.01;7.27;;;;;22.90;1.00;;;;;;2170073;66;928;-85
2024/04/09 08:06:04;39516.00;0.13;69.05;0.00;0.00;0.62;;;;;22.80;1.00;;;;;;2169863;66;933;-84
2024/04/09 08:08:33;158372.00;0.53;274.23;0.00;0.00;0.62;;;;;22.60;1.00;;;;;;2169684;66;2386;-84
2024/04/09 08:10:59;299897.00;1.00;517.74;14526.00;0.05;25.79;;;;;22.70;1.00;;;;;;2169677;66;1109;-85
2024/04/09 08:13:28;169363.00;0.56;293.17;0.00;0.00;0.62;;;;;22.30;1.00;;;;;;2169479;66;1012;-84
2024/04/09 08:15:54;133161.00;0.44;230.78;0.00;0.00;0.62;;;;;22.00;1.00;;;;;;2169950;66;1091;-85
2024/04/09 08:18:25;197864.00;0.66;342.25;0.00;0.00;0.62;;;;;21.40;1.00;;;;;;2170193;66;1867;-83
2024/04/09 08:20:52;164250.00;0.55;284.36;0.00;0.00;0.62;;;;;20.90;1.00;;;;;;2170120;66;955;-83
2024/04/09 08:23:20;176083.00;0.59;304.74;11506.00;0.04;20.56;;;;;20.30;1.00;;;;;;2170483;66;1448;-84
2024/04/09 08:25:49;708860.00;2.36;1222.61;126265.00;0.42;218.89;;;;;20.30;1.00;;;;;;2170131;66;862;-85
2024/04/09 08:28:18;896300.00;2.99;1549.62;253093.00;0.84;437.27;;;;;20.40;1.00;;;;;;2170317;66;1240;-84
2024/04/09 08:30:46;1252276.00;4.17;2185.03;153700.00;0.51;266.18;;;;;20.40;1.00;;;;;;2170307;66;2182;-83
2024/04/09 08:33:13;1341799.00;4.47;2348.81;188056.00;0.63;325.36;;;;;20.00;1.00;;;;;;2170082;66;1035;-87
2024/04/09 08:35:47;1087871.00;3.63;1888.75;274441.00;0.91;473.98;;;;;20.00;1.00;;;;;;2170321;66;2125;-86
2024/04/09 08:38:13;816608.00;2.72;1410.10;178437.00;0.59;308.80;;;;;19.70;1.00;;;;;;2170228;66;1865;-84
2024/04/09 08:40:43;69984.00;0.23;121.73;0.00;0.00;0.62;;;;;18.80;1.00;;;;;;2170250;66;1109;-84
2024/04/09 08:43:08;103628.00;0.35;179.83;0.00;0.00;0.62;;;;;18.40;1.00;;;;;;2170333;66;1273;-83
2024/04/09 08:45:39;294490.00;0.98;508.45;72473.00;0.24;126.03;;;;;18.00;1.00;;;;;;2170275;66;1060;-86
2024/04/09 08:48:07;1502041.00;5.01;2646.96;444786.00;1.48;766.81;;;;;17.40;1.00;;;;;;2170665;66;1492;-84
2024/04/09 08:50:35;958559.00;3.20;1659.21;206370.00;0.69;356.89;;;;;17.70;1.00;;;;;;2170415;66;1007;-83
2024/04/09 08:53:04;4543987.00;15.15;10827.50;847639.00;2.83;1464.34;;;;;17.90;1.00;;;;;;2170350;66;1004;-85
2024/04/09 08:55:34;214010.00;0.71;370.04;44087.00;0.15;76.96;;;;;18.20;1.00;;;;;;2170032;66;1533;-84
2024/04/09 08:58:01;457641.00;1.53;788.93;18878.00;0.06;33.33;;;;;17.80;1.00;;;;;;2170160;66;1875;-84
2024/04/09 09:00:29;987803.00;3.29;1710.88;138579.00;0.46;240.12;;;;;16.90;1.00;;;;;;2170205;66;1002;-85
2024/04/09 09:02:55;1356703.00;4.52;2376.26;383563.00;1.28;661.55;;;;;16.40;1.00;;;;;;2170305;66;1232;-84
2024/04/09 09:05:24;1542213.00;5.14;2722.81;395582.00;1.32;682.21;;;;;16.40;1.00;;;;;;2170397;66;1059;-85
2024/04/09 09:07:58;65587.00;0.22;114.13;0.00;0.00;0.62;;;;;16.30;1.00;;;;;;2170331;66;1192;-85
2024/04/09 09:10:29;3373490.00;11.24;6931.61;457610.00;1.53;788.87;;;;;16.20;1.00;;;;;;2170188;66;1087;-85
2024/04/09 09:12:58;3874491.00;12.91;8452.17;849190.00;2.83;1467.05;;;;;16.90;1.00;;;;;;2170350;66;1024;-86
2024/04/09 09:15:27;6880735.00;22.94;23200.15;2003931.00;6.68;3632.40;;;;;17.70;1.00;;;;;;2170311;66;1063;-87
2024/04/09 09:17:53;7274321.00;24.25;26057.40;1842258.00;6.14;3305.30;;;;;18.30;1.00;;;;;;2170140;66;1904;-85
2024/04/09 09:20:22;6221856.00;20.74;18963.39;1542063.00;5.14;2722.52;;;;;18.70;1.00;;;;;;2170244;66;1021;-84
2024/04/09 09:22:48;5460836.00;18.20;14841.44;1444306.00;4.81;2538.75;;;;;18.70;1.00;;;;;;2170794;66;1155;-85
2024/04/09 09:25:18;3343319.00;11.14;6846.27;569161.00;1.90;981.00;;;;;19.20;1.00;;;;;;2170297;66;1026;-85
2024/04/09 09:27:48;3811461.00;12.70;8249.60;923737.00;3.08;1597.85;;;;;19.20;1.00;;;;;;2170223;66;1220;-85
2024/04/09 09:30:18;1135925.00;3.79;1974.79;254293.00;0.85;439.33;;;;;19.00;1.00;;;;;;2170257;66;1235;-83
2024/04/09 09:32:48;1895683.00;6.32;3412.28;494756.00;1.65;852.80;;;;;18.60;1.00;;;;;;2170293;66;1007;-85
2024/04/09 09:35:20;2329905.00;7.77;4325.20;405949.00;1.35;700.03;;;;;18.80;1.00;;;;;;2170248;66;1089;-84
2024/04/09 09:37:48;4946702.00;16.49;12473.20;1361648.00;4.54;2385.38;;;;;19.10;1.00;;;;;;2170213;66;1916;-84